首页
METAR-TAF:

METAR-TAF

机场 :

夏洛特道格拉斯國際機場

夏洛特, 北卡罗来纳州, 美国

纬度: 35-12-48N, 经度: 080-56-55W, 海拔: 228米

当前天气观测

该预报发布于43分钟前的12:52 UTC
风速6节,风向西转西南
温度 24°C
湿度 94%
气压 1017 hPa
能見度: 12.9公里
多云层高于600英尺

METAR: KCLT 171252Z 25006KT 8SM BKN006 24/23 A3002 RMK AO2 SLP156 T02440233

时间: 09:35 (13:35 UTC)

预报

该预报发布于2小时和4分钟前的11:31 UTC
预报有效从17日的 12点(UTC)到 18日的 18点(UTC)
风速4节,风向西南
能見度: 10公里
多云层高于700英尺
短暂存在
从 17日的 12点(UTC)到 17日的 14点(UTC)
能見度: 6.4公里
阴天层高于300英尺
轻雾
从 17日的 1400点(UTC)
风速6节,风向西转西南
能見度: 10公里
散云层高于6000英尺
多云层高于25000英尺
从 17日的 1900点(UTC)
风速7节,风向西南
能見度: 10公里
多云层高于6000英尺
几率 30%
从 17日的 21点(UTC)到 18日的 02点(UTC)
能見度: 6.4公里
阴天层高于2500英尺, 积雨云.
雷暴, 小雨
从 18日的 0200点(UTC)
风速5节,风向西
能見度: 10公里
多云层高于5000英尺
从 18日的 0700点(UTC)
风速4节,风向北转西北
能見度: 9.7公里
散云层高于5000英尺
轻雾
从 18日的 1400点(UTC)
风速7节,风向北转东北
能見度: 10公里
散云层高于24000英尺

TAF: KCLT 171131Z 1712/1818 22004KT P6SM BKN007 TEMPO 1712/1714 4SM BR OVC003 FM171400 24006KT P6SM SCT060 BKN250 FM171900 23007KT P6SM BKN060 PROB30 1721/1802 4SM -TSRA OVC025CB FM180200 26005KT P6SM BKN050 FM180700 33004KT 6SM BR SCT050 FM181400 02007KT P6SM SCT240

超过4000个机场的气象观测和天气预报(METAR&TAF报告)。

可查询的气象台以黄色和红色小点在地图上表示。

将鼠标移到小点上方,可查看气象台名称。

然后点击查看天气观测和预报。

如需切换地图:点击带黑十字的绿色按钮放大地图;点击带横线的绿色按钮缩小地图;或者点击绿色箭头查看邻近地区的地图。


METAR-TAF: